Tiempo atmosférico en la estación meteorológica de Pontevedra, Pontevedra (108 m.)



Fecha
DESCASC
Temp. máxima en grados centígrados (hora)
DESCASC
Temp. mínima en grados centígrados (hora)
DESCASC
Temp. media en grados centígrados
DESCASC
Racha de viento máxima en m/sg (hora)
DESCASC
Velocidad máxima media en intervalos de 10 minutos(hora)
DESCASC
Precipitaciones diarias en mm
DESCASC
Precipitaciones de 00:00 a 06:00 en mm
DESCASC
Precipitaciones de 06:00 a 12:00 en mm
DESCASC
Precipitaciones de 12:00 a 18:00 en mm
DESCASC
Precipitaciones de 18:00 a 24:00 en mm
DESCASC
22-08-2019 32.4 (16:30) 14.1 (07:40) 23.3 5 (17:30) 3.06 (22:40) 0 0 0 0 0
21-08-2019 30.4 (17:30) 15.7 (08:40) 23 8.89 (16:20) 5.56 (16:10) 0 0 0 0 0
20-08-2019 27.7 (16:30) 14 (05:10) 20.9 8.61 (18:20) 5 (18:40) 0 0 0 0 0
19-08-2019 24.4 (16:50) 13.7 (07:30) 19 11.67 (18:30) 6.11 (18:30) 0 0 0 0 0
18-08-2019 24.1 (17:30) 15.9 (00:00) 20 8.06 (11:40) 4.44 (11:00) 11 9.4 1.6 0 0
17-08-2019 24.7 (13:40) 17.9 (00:00) 21.3 10.56 (18:20) 5.28 (18:10) 0 0 0 0 0
16-08-2019 24.8 (15:30) 13.6 (00:00) 19.2 7.78 (16:20) 4.17 (15:50) 0 0 0 0 0
15-08-2019 27.4 (18:30) 14.6 (00:00) 21 6.67 (16:40) 3.89 (16:30) 0 0 0 0 0
14-08-2019 23.5 (19:20) 14 (00:00) 18.8 4.72 (17:20) 3.06 (06:40) 0 0 0 0 0
13-08-2019 24.2 (17:40) 10.8 (00:00) 17.5 7.78 (17:30) 4.17 (18:40) 0 0 0 0 0
12-08-2019 22.7 (15:50) 11.4 (00:00) 17.1 8.33 (18:20) 4.72 (18:10) 0 0 0 0 0
11-08-2019 21.9 (17:50) 12.1 (00:00) 17 8.61 (15:40) 5.28 (15:50) 0 0 0 0 0
10-08-2019 22.8 (15:50) 16.5 (00:00) 19.6 7.22 (17:10) 4.44 (17:10) 0 0 0 0 0
09-08-2019 22.1 (14:30) 17.4 (00:00) 19.8 13.89 (14:40) 7.78 (14:40) 1 0.4 0.6 0 0
08-08-2019 22.9 (16:40) 17.9 (00:00) 20.4 17.22 (23:40) 7.78 (23:00) 29.6 1.6 1.6 10.4 16
07-08-2019 20.5 (19:10) 17.5 (00:00) 19 8.89 (18:50) 4.17 (15:00) 14.8 0 4.4 6.8 3.6
06-08-2019 22.4 (13:00) 17.8 (00:00) 20.1 6.67 (15:00) 3.61 (15:00) 0.2 0 0 0.2 0
05-08-2019 25.6 (16:20) 13.3 (00:00) 19.5 8.33 (16:40) 5.28 (19:00) 0 0 0 0 0
04-08-2019 24.8 (15:40) 17 (00:00) 20.9 9.17 (16:30) 5.28 (16:20) 0 0 0 0 0
03-08-2019 25.6 (16:10) 13.7 (00:00) 19.7 7.5 (19:00) 4.44 (19:00) 0 0 0 0 0
02-08-2019 24.7 (16:10) 14.2 (00:00) 19.5 7.5 (15:20) 3.89 (15:20) 0 0 0 0 0
01-08-2019 27.5 (17:50) 13.1 (00:00) 20.3 7.78 (18:50) 4.17 (16:20) 0 0 0 0 0
31-07-2019 26.9 (17:40) 11.1 (00:00) 19 7.78 (16:00) 4.72 (15:50) 0 0 0 0 0
30-07-2019 23.8 (18:30) 11.1 (00:00) 17.4 8.61 (19:20) 5.28 (16:10) 0 0 0 0 0
29-07-2019 21.1 (15:50) 15.1 (00:00) 18.1 9.72 (16:50) 5 (14:50) 7.2 5 0.6 1.6 0
28-07-2019 23.5 (15:50) 12.4 (00:00) 17.9 9.72 (17:10) 5.28 (18:10) 0 0 0 0 0
27-07-2019 23.4 (17:10) 14.9 (00:00) 19.1 7.22 (04:10) 3.61 (22:00) 7.6 1 4.2 2.4 0
26-07-2019 22.4 (15:10) 15.6 (00:00) 19 9.17 (17:00) 5.28 (16:50) 0 0 0 0 0

Gráficas

Temp. máximas Temp. mínimas Temp. medias Precipitaciones Rachas de viento máximas Velocidades máximas media en intervalos de 10 minutos

Datos horarios

Fecha y hora oficial Temperatura (ºC) Velocidad del viento (km/h) Dirección del viento Racha (km/h) Dirección de racha Precipitación (mm) Presión (hPa) Tendencia (hPa) Humedad (%)
2019-08-24 23:00:00 17.3 3 Sur 8 Sur 0 1003.8 -0.1 84
2019-08-24 22:00:00 18 3 Sudeste 7 Oeste 0 1003.6 -0.5 80
2019-08-24 21:00:00 19.3 3 Sudoeste 18 Sudoeste 0 1003.9 -0.4 75
2019-08-24 20:00:00 21.4 6 Sudoeste 21 Sudoeste 0 1003.9 -0.6 67
2019-08-24 19:00:00 23.2 11 Sudoeste 21 Oeste 0 1004.1 -0.5 62
2019-08-24 18:00:00 22.8 9 Sudoeste 23 Sudoeste 0 1004.3 -0.4 65
2019-08-24 17:00:00 23.5 12 Sudoeste 24 Sudoeste 0 1004.5 -0.6 62
2019-08-24 16:00:00 23.9 9 Sudoeste 19 Sudoeste 0 1004.6 -0.8 60
2019-08-24 15:00:00 23.8 9 Sudoeste 17 Oeste 0 1004.7 -0.9 59
2019-08-24 14:00:00 22.9 8 Sudoeste 15 Oeste 0 1005.1 -0.2 61
2019-08-24 13:00:00 21.9 6 Oeste 13 Noroeste 0 1005.4 0.2 59
2019-08-24 12:00:00 20 4 Noroeste 10 Noroeste 0 1005.6 0.7 70
2019-08-24 11:00:00 18.1 5 Norte 10 Nordeste 0 1005.3 0.9 80
2019-08-24 10:00:00 17 7 Nordeste 10 Nordeste 0 1005.2 1 84
2019-08-24 09:00:00 16.8 4 Nordeste 8 Nordeste 0 1004.9 0.8 88
2019-08-24 08:00:00 17.1 3 Nordeste 6 Oeste 0 1004.4 0.1 88
2019-08-24 07:00:00 17.4 3 Oeste 6 Oeste 0 1004.2 -0.1 88
2019-08-24 06:00:00 17.3 3 Sudoeste 6 Sudoeste 0 1004.1 -0.3 88
2019-08-24 05:00:00 17.4 2 Norte 9 Oeste 0 1004.3 -0.2 89
2019-08-24 04:00:00 17.5 5 Sudoeste 11 Sudoeste 0 1004.3 -0.2 89
2019-08-24 03:00:00 17.8 6 Sudoeste 13 Sudoeste 0 1004.4 -0.1 90
2019-08-24 02:00:00 18 3 Sudoeste 12 Sudoeste 0 1004.5 0 90
2019-08-24 01:00:00 18.2 6 Sudoeste 9 Sudoeste 0 1004.5 0.2 90
2019-08-24 00:00:00 18.3 4 Sudoeste 8 Sudoeste 0 1004.5 0.6 91
2019-08-23 23:00:00 18.4 4 Sudoeste 8 Sudoeste 0 1004.5 0.8 91
2019-08-23 22:00:00 18.6 2 Sudoeste 14 Sudoeste 0 1004.3 0.7 89
2019-08-23 21:00:00 20.1 7 Sudoeste 17 Sudoeste 0 1003.9 0.7 82
2019-08-23 20:00:00 21.4 8 Sudoeste 19 Sudoeste 0 1003.7 0.6 74
2019-08-23 19:00:00 22.2 11 Sudoeste 22 Sudoeste 0 1003.6 0.4 71
2019-08-23 18:00:00 24.2 13 Sudoeste 20 Sudoeste 0 1003.2 -0.1 67
2019-08-23 17:00:00 25.4 9 Sudoeste 23 Sudoeste 0 1003.1 -0.3 61
2019-08-23 16:00:00 26.8 10 Sudoeste 18 Sudoeste 0 1003.2 -0.4 57
2019-08-23 15:00:00 28 8 Sudoeste 19 Sudoeste 0 1003.3 -0.1 51
2019-08-23 14:00:00 27.7 11 Sudoeste 15 Sudoeste 0 1003.4 0 48
2019-08-23 13:00:00 25.7 7 Sudoeste 15 Sudoeste 0 1003.6 0.8 56
2019-08-23 12:00:00 25.1 4 Sudoeste 11 Sudoeste 0 1003.4 1.1 56
2019-08-23 11:00:00 23.1 8 Sudoeste 15 Sudoeste 0 1003.4 1.2 65
2019-08-23 10:00:00 23.1 4 Sur 8 Sur 0 1002.8 1 61
2019-08-23 09:00:00 21.2 2 Sudeste 12 Este 0 1002.3 0.4 63
2019-08-23 08:00:00 20.8 3 Nordeste 18 Nordeste 0 1002.2 -0.1 62
2019-08-23 07:00:00 21.2 9 Este 15 Este 0 1001.8 -0.4 60
2019-08-23 06:00:00 21.7 14 Nordeste 20 Nordeste 0 1001.9 -0.5 59
2019-08-23 05:00:00 22 8 Este 20 Nordeste 0 1002.3 -0.3 60
2019-08-23 04:00:00 22.2 6 Este 15 Este 0 1002.2 -0.6 61
2019-08-23 03:00:00 23 11 Este 16 Nordeste 0 1002.4 -0.7 58
2019-08-23 02:00:00 23.2 7 Este 18 Nordeste 0 1002.6 -0.5 64
2019-08-23 01:00:00 23 5 Nordeste 12 Este 0 1002.8 -0.2 65
2019-08-23 00:00:00 22.6 0 Calma 13 Nordeste 0 1003.1 0 66
2019-08-22 23:00:00 23.6 3 Nordeste 17 Nordeste 0 1003.1 0.3 58
2019-08-22 22:00:00 25 8 Nordeste 11 Nordeste 0 1003 -0.1 47
2019-08-22 21:00:00 26.4 0 Calma 11 Sudoeste 0 1003.1 0 47
2019-08-22 20:00:00 28.3 6 Sudoeste 13 Sudoeste 0 1002.8 -0.3 40
2019-08-22 19:00:00 29.6 8 Sudoeste 17 Sudoeste 0 1003.1 -0.7 39
2019-08-22 18:00:00 30.8 5 Sur 18 Sudoeste 0 1003.1 -1 36
2019-08-22 17:00:00 32.1 8 Sudoeste 13 Sudoeste 0 1003.1 -1.3 33
2019-08-22 16:00:00 31.9 5 Sur 15 Sudoeste 0 1003.8 -1 33
2019-08-22 15:00:00 30.8 7 Oeste 13 Oeste 0 1004.1 -0.8 35
2019-08-22 14:00:00 29.7 4 Noroeste 11 Oeste 0 1004.4 -0.2 42
2019-08-22 13:00:00 27.5 3 Oeste 11 Sur 0 1004.8 0.4 52
2019-08-22 12:00:00 24 5 Sur 9 Sur 0 1004.9 0.4 63
2019-08-22 11:00:00 20.6 3 Noroeste 8 Oeste 0 1004.6 0.2 68
2019-08-22 10:00:00 18.1 0 Calma 5 Este 0 1004.4 0.1 77
2019-08-22 09:00:00 15.4 4 Nordeste 7 Nordeste 0 1004.5 0.1 83
2019-08-22 08:00:00 14.5 4 Este 5 Este 0 1004.4 -0.5 86
2019-08-22 07:00:00 14.6 3 Sur 8 Norte 0 1004.3 -0.6 83
2019-08-22 06:00:00 14.3 3 Nordeste 11 Este 0 1004.4 -0.7 82
2019-08-22 05:00:00 15.4 3 Nordeste 12 Nordeste 0 1004.9 -0.4 80
2019-08-22 04:00:00 16.2 5 Nordeste 8 Nordeste 0 1004.9 -0.8 78
2019-08-22 03:00:00 17.5 4 Norte 14 Nordeste 0 1005.1 -0.6 75
2019-08-22 02:00:00 18.6 10 Este 14 Este 0 1005.3 -0.6 70
2019-08-22 01:00:00 19.8 6 Nordeste 14 Nordeste 0 1005.7 0.3 65
2019-08-22 00:00:00 20.8 12 Nordeste 20 Nordeste 0 1005.7 1.1 61
2019-08-21 23:00:00 22.2 9 Norte 32 Norte 0 1005.9 1.6 60
2019-08-21 22:00:00 23.7 7 Norte 20 Norte 0 1005.4 1.2 58
2019-08-21 21:00:00 26.1 12 Noroeste 28 Noroeste 0 1004.6 0.5 53
2019-08-21 20:00:00 28.5 7 Norte 26 Norte 0 1004.3 0.1 45
2019-08-21 19:00:00 29.7 12 Noroeste 21 Noroeste 0 1004.2 0.1 42
2019-08-21 18:00:00 30 14 Noroeste 28 Noroeste 0 1004.1 -0.6 42
2019-08-21 17:00:00 30.1 16 Noroeste 32 Noroeste 0 1004.2 -1 44
2019-08-21 16:00:00 29.7 17 Noroeste 27 Oeste 0 1004.1 -1.4 46
2019-08-21 15:00:00 28.5 12 Oeste 23 Noroeste 0 1004.7 -0.8 51
2019-08-21 14:00:00 27.2 11 Noroeste 23 Noroeste 0 1005.2 -0.2 51
2019-08-21 13:00:00 25.4 8 Oeste 14 Noroeste 0 1005.5 0.4 57
2019-08-21 12:00:00 23.4 5 Noroeste 11 Oeste 0 1005.5 0.8 62
2019-08-21 11:00:00 20.2 4 Sudoeste 7 Sudoeste 0 1005.4 1 70
2019-08-21 10:00:00 18.4 3 Sudoeste 4 Sudoeste 0 1005.1 0.9 80
2019-08-21 09:00:00 16.1 2 Oeste 14 Nordeste 0 1004.7 0.5 85
2019-08-21 08:00:00 16 4 Norte 11 Sur 0 1004.4 0.1 83
2019-08-21 07:00:00 17.1 6 Sudeste 15 Nordeste 0 1004.2 -0.6 80
2019-08-21 06:00:00 18 6 Nordeste 14 Nordeste 0 1004.2 -1 75
2019-08-21 05:00:00 16.6 4 Oeste 10 Nordeste 0 1004.3 -0.9 83
2019-08-21 04:00:00 17.4 3 Norte 6 Noroeste 0 1004.8 -0.5 78
2019-08-21 03:00:00 18.1 0 Calma 10 Nordeste 0 1005.2 -0.6 75
2019-08-21 02:00:00 19.2 4 Nordeste 15 Nordeste 0 1005.2 -0.8 70
2019-08-21 01:00:00 19.6 8 Nordeste 15 Nordeste 0 1005.3 -0.3 68
2019-08-21 00:00:00 20.1 7 Norte 21 Norte 0 1005.8 0.5 66
2019-08-20 23:00:00 20.9 10 Norte 24 Norte 0 1006 0.7 64
2019-08-20 22:00:00 21.8 7 Norte 22 Norte 0 1005.6 0.5 62
2019-08-20 21:00:00 23.3 8 Norte 25 Noroeste 0 1005.3 0.3 59
2019-08-20 20:00:00 25 13 Noroeste 28 Noroeste 0 1005.3 0.2 53
2019-08-20 19:00:00 26.3 18 Noroeste 31 Noroeste 0 1005.1 -0.7 49
2019-08-20 18:00:00 27.3 15 Noroeste 31 Noroeste 0 1005 -1.3 48
2019-08-20 17:00:00 27.5 13 Noroeste 26 Noroeste 0 1005.1 -1.8 47
2019-08-20 16:00:00 27.2 13 Noroeste 24 Norte 0 1005.8 -1.5 48
2019-08-20 15:00:00 26.9 8 Norte 26 Nordeste 0 1006.3 -1.3 47
2019-08-20 14:00:00 25 9 Norte 26 Norte 0 1006.9 -0.7 50
2019-08-20 13:00:00 23.7 11 Norte 30 Norte 0 1007.3 -0.3 54
2019-08-20 12:00:00 22.1 12 Noroeste 25 Norte 0 1007.6 0.3 59
2019-08-20 11:00:00 20.2 10 Norte 27 Noroeste 0 1007.6 0.5 64
2019-08-20 10:00:00 18.1 10 Norte 28 Nordeste 0 1007.6 0.8 71
2019-08-20 09:00:00 16 9 Norte 23 Norte 0 1007.3 1.1 77
2019-08-20 08:00:00 14.5 3 Noroeste 13 Norte 0 1007.1 0.9 82
2019-08-20 07:00:00 14.7 5 Norte 23 Norte 0 1006.8 0.7 82
2019-08-20 06:00:00 15.1 8 Norte 21 Noroeste 0 1006.2 -0.1 79
2019-08-20 05:00:00 14.1 3 Norte 12 Norte 0 1006.2 -0.6 83
2019-08-20 04:00:00 14.4 5 Norte 13 Norte 0 1006.1 -0.6 82
2019-08-20 03:00:00 14.6 3 Nordeste 17 Norte 0 1006.3 -0.4 81
2019-08-20 02:00:00 15.7 6 Noroeste 18 Noroeste 0 1006.8 0.3 75
2019-08-20 01:00:00 16.1 6 Norte 17 Norte 0 1006.7 0.8 72
2019-08-20 00:00:00 16.7 5 Norte 24 Norte 0 1006.7 1.3 69
2019-08-19 23:00:00 17.2 9 Norte 22 Norte 0 1006.5 1.4 69
2019-08-19 22:00:00 18.1 12 Noroeste 27 Norte 0 1005.9 0.9 66
2019-08-19 21:00:00 19.5 9 Noroeste 28 Norte 0 1005.4 0.8 64
2019-08-19 20:00:00 20.9 16 Noroeste 32 Noroeste 0 1005.1 0.4 61
2019-08-19 19:00:00 22.4 17 Noroeste 42 Noroeste 0 1005 0 57
2019-08-19 18:00:00 22.8 19 Noroeste 39 Norte 0 1004.6 -0.6 55
2019-08-19 17:00:00 23.8 17 Norte 34 Noroeste 0 1004.7 -0.6 50
2019-08-19 16:00:00 23.8 15 Noroeste 34 Noroeste 0 1005 -0.8 51
2019-08-19 15:00:00 23.3 17 Noroeste 35 Norte 0 1005.2 -0.7 47
2019-08-19 14:00:00 22.7 11 Norte 35 Noroeste 0 1005.3 -0.5 47
2019-08-19 13:00:00 22 10 Norte 30 Norte 0 1005.8 0.2 55
2019-08-19 12:00:00 19.9 10 Norte 26 Norte 0 1005.9 0.4 61
2019-08-19 11:00:00 19 10 Norte 25 Norte 0 1005.8 0.1 62
2019-08-19 10:00:00 16.7 7 Norte 19 Nordeste 0 1005.6 -0.1 69
2019-08-19 09:00:00 14.8 7 Nordeste 15 Nordeste 0 1005.5 0.1 78
2019-08-19 08:00:00 14 6 Nordeste 13 Norte 0 1005.7 0.3 79
2019-08-19 07:00:00 14 2 Sudoeste 14 Nordeste 0 1005.7 -0.2 80
2019-08-19 06:00:00 14.5 6 Nordeste 14 Nordeste 0 1005.4 -0.8 77
2019-08-19 05:00:00 14.5 4 Nordeste 12 Nordeste 0 1005.4 -0.9 76
2019-08-19 04:00:00 14.4 3 Noroeste 13 Nordeste 0 1005.9 -0.4 79
2019-08-19 03:00:00 14.8 6 Nordeste 14 Nordeste 0 1006.2 -0.2 77
2019-08-19 02:00:00 14.9 5 Norte 13 Noroeste 0 1006.3 0.5 78
2019-08-19 01:00:00 15.4 4 Norte 14 Noroeste 0 1006.3 1.5 75
2019-08-19 00:00:00 16 8 Norte 14 Noroeste 0 1006.4 2.4 74
2019-08-18 23:00:00 16.6 8 Norte 17 Norte 0 1005.8 2.2 70
2019-08-18 22:00:00 17.9 12 Norte 22 Norte 0 1004.8 1.5 66
2019-08-18 21:00:00 19.8 13 Noroeste 26 Noroeste 0 1004 1 63
2019-08-18 20:00:00 21.3 10 Noroeste 25 Noroeste 0 1003.6 0.6 61
2019-08-18 19:00:00 21.9 8 Oeste 23 Oeste 0 1003.3 0.3 64
2019-08-18 18:00:00 23.8 12 Oeste 27 Noroeste 0 1003 -0.1 56
2019-08-18 17:00:00 23 10 Noroeste 23 Noroeste 0 1003 0 60
2019-08-18 16:00:00 22.9 10 Noroeste 23 Noroeste 0 1003 0 59
2019-08-18 15:00:00 21.5 9 Noroeste 21 Noroeste 0 1003.1 0.3 68
2019-08-18 14:00:00 20.7 8 Norte 24 Norte 0 1003 1.1 72
2019-08-18 13:00:00 19.1 10 Noroeste 21 Noroeste 0 1003 1.9 79
2019-08-18 12:00:00 18.3 12 Noroeste 29 Noroeste 0 1002.8 2.6 83
2019-08-18 11:00:00 17.7 16 Noroeste 27 Noroeste 0 1001.9 2.4 90
2019-08-18 10:00:00 17.5 8 Noroeste 17 Nordeste 0 1001.1 2.4 94
2019-08-18 09:00:00 17.7 6 Nordeste 20 Nordeste 0 1000.2 1.7 94
2019-08-18 08:00:00 18.1 8 Oeste 17 Noroeste 0.6 999.5 0.6 96
2019-08-18 07:00:00 19 7 Sur 24 Sudoeste 1 998.7 -0.6 97
2019-08-18 06:00:00 19.5 4 Sudoeste 24 Oeste 8.6 998.5 -1.3 97
2019-08-18 05:00:00 19.7 5 Sudoeste 15 Sur 0.8 998.9 -1.4 95
2019-08-18 04:00:00 20.5 7 Sur 22 Sur 0 999.3 -1.5 90
2019-08-18 03:00:00 20.6 11 Sur 25 Sur 0 999.8 -1.5 88
2019-08-18 02:00:00 20.7 10 Sur 22 Sur 0 1000.3 -1.1 87
2019-08-18 01:00:00 20.6 5 Sudoeste 14 Sur 0 1000.8 -0.1 87
2019-08-18 00:00:00 20.6 6 Sur 13 Sur 0 1001.3 0.4 87
2019-08-17 23:00:00 20.6 4 Sur 12 Sudoeste 0 1001.4 -0.1 87
2019-08-17 22:00:00 21.1 4 Sudoeste 15 Sudoeste 0 1000.9 -0.8 85
2019-08-17 21:00:00 21.9 7 Sudoeste 23 Sudoeste 0 1000.9 -1 82
2019-08-17 20:00:00 22.8 12 Sudoeste 31 Sudoeste 0 1001.5 -0.6 79
2019-08-17 19:00:00 22.8 15 Sudoeste 38 Sudoeste 0 1001.7 -0.7 78
2019-08-17 18:00:00 22.4 18 Sudoeste 33 Sudoeste 0 1001.9 -0.8 81
2019-08-17 17:00:00 22.7 15 Sudoeste 29 Sudoeste 0 1002.1 -0.9 79
2019-08-17 16:00:00 22.9 13 Sudoeste 21 Sudoeste 0 1002.4 -0.6 78
2019-08-17 15:00:00 22.3 9 Sudoeste 24 Sudoeste 0 1002.7 -0.5 80
2019-08-17 14:00:00 23 12 Sudoeste 22 Sudoeste 0 1003 -0.5 77
2019-08-17 13:00:00 24.1 9 Sur 25 Sur 0 1003 -0.6 69
2019-08-17 12:00:00 22.6 10 Sur 24 Sur 0 1003.2 -0.2 72
2019-08-17 11:00:00 20.9 6 Sur 12 Sur 0 1003.5 0 81
2019-08-17 10:00:00 19.6 3 Sur 5 Sur 0 1003.6 -0.1 86
2019-08-17 09:00:00 18.5 5 Noroeste 8 Noroeste 0 1003.4 -0.3 91
2019-08-17 08:00:00 18.1 0 Calma 8 Este 0 1003.5 -0.4 91
2019-08-17 07:00:00 18.2 5 Sudeste 9 Sudeste 0 1003.7 -0.7 90
2019-08-17 06:00:00 18.2 3 Sur 12 Sudeste 0 1003.7 -1.2 90
2019-08-17 05:00:00 18.2 3 Sur 6 Sur 0 1003.9 -1.1 91
2019-08-17 04:00:00 18.2 3 Este 8 Este 0 1004.4 -0.9 92
2019-08-17 03:00:00 18 0 Calma 6 Este 0 1004.9 -0.8 92
2019-08-17 02:00:00 18.1 3 Nordeste 5 Este 0 1005 -0.7 91
2019-08-17 01:00:00 18.5 0 Calma 8 Sudeste 0 1005.3 0.2 90
2019-08-17 00:00:00 18 3 Sudeste 5 Sudeste 0 1005.7 0.8 91
2019-08-16 23:00:00 18.8 0 Calma 6 Sudeste 0 1005.7 0.9 88
2019-08-16 22:00:00 19.5 3 Sudoeste 18 Sudoeste 0 1005.1 0 85
2019-08-16 21:00:00 20.4 7 Sudoeste 19 Oeste 0 1004.9 -0.1 81
2019-08-16 20:00:00 22.3 10 Sudoeste 25 Sudoeste 0 1004.8 -0.5 74
2019-08-16 19:00:00 22.8 13 Sudoeste 25 Sudoeste 0 1005.1 -0.4 71
2019-08-16 18:00:00 23.8 12 Sudoeste 23 Sudoeste 0 1005 -0.6 65
2019-08-16 17:00:00 24.4 10 Sudoeste 28 Sudoeste 0 1005.3 -0.5 63
2019-08-16 16:00:00 24.2 12 Sudoeste 27 Sudoeste 0 1005.5 -0.3 64
2019-08-16 15:00:00 24 11 Sudoeste 22 Sur 0 1005.6 -0.5 64
2019-08-16 14:00:00 23.1 10 Sudoeste 20 Sudoeste 0 1005.8 0.1 64
2019-08-16 13:00:00 22.3 8 Oeste 16 Sudoeste 0 1005.8 -0.1 70
2019-08-16 12:00:00 21.2 5 Sudoeste 10 Oeste 0 1006.1 0.1 71
2019-08-16 11:00:00 19 4 Oeste 6 Oeste 0 1005.7 0 77
2019-08-16 10:00:00 17.6 3 Norte 12 Nordeste 0 1005.9 0.2 80
2019-08-16 09:00:00 14.8 6 Nordeste 12 Nordeste 0 1006 0.4 89
2019-08-16 08:00:00 13.6 2 Nordeste 16 Este 0 1005.7 0.2 91
2019-08-16 07:00:00 14.5 10 Nordeste 14 Nordeste 0 1005.7 -0.2 89
2019-08-16 06:00:00 14.6 10 Nordeste 14 Nordeste 0 1005.6 -0.6 91
2019-08-16 05:00:00 15.3 6 Nordeste 13 Nordeste 0 1005.5 -0.9 89
2019-08-16 04:00:00 15.8 5 Nordeste 12 Nordeste 0 1005.9 -0.4 89
2019-08-16 03:00:00 16.5 5 Nordeste 7 Este 0 1006.2 -0.5 86
2019-08-16 02:00:00 17.2 2 Sudeste 5 Norte 0 1006.4 -0.3 83
2019-08-16 01:00:00 18.5 2 Nordeste 8 Nordeste 0 1006.3 0 81
2019-08-16 00:00:00 19.7 4 Norte 6 Oeste 0 1006.7 0.7 72
2019-08-15 23:00:00 21 3 Norte 8 Noroeste 0 1006.7 0.9 67
2019-08-15 22:00:00 22.7 6 Noroeste 14 Noroeste 0 1006.3 0.4 62
2019-08-15 21:00:00 25.1 7 Noroeste 12 Noroeste 0 1006 -0.2 57
2019-08-15 20:00:00 25.6 5 Sur 16 Sudoeste 0 1005.8 -0.7 63
2019-08-15 19:00:00 26.8 10 Sudoeste 19 Sudoeste 0 1005.9 -1.1 58
2019-08-15 18:00:00 27 9 Sudoeste 21 Sudoeste 0 1006.2 -1.2 58
2019-08-15 17:00:00 26.7 12 Sudoeste 24 Sudoeste 0 1006.5 -1 58
2019-08-15 16:00:00 25.9 13 Sudoeste 22 Sudoeste 0 1007 -0.8 57
2019-08-15 15:00:00 25.5 10 Sudoeste 23 Sudoeste 0 1007.4 -0.4 61
2019-08-15 14:00:00 24.9 9 Sudoeste 18 Sudoeste 0 1007.5 -0.4 61
2019-08-15 13:00:00 23.3 10 Sudoeste 21 Oeste 0 1007.8 0 61
2019-08-15 12:00:00 22.2 9 Oeste 15 Oeste 0 1007.8 0.1 69
2019-08-15 11:00:00 20.3 4 Sur 7 Sudeste 0 1007.9 0.3 72
2019-08-15 10:00:00 18 3 Sudoeste 5 Oeste 0 1007.8 0.2 82
2019-08-15 09:00:00 15.7 3 Nordeste 9 Este 0 1007.7 0.1 90
2019-08-15 08:00:00 14.8 5 Nordeste 8 Nordeste 0 1007.6 -0.3 90
2019-08-15 07:00:00 15.1 4 Nordeste 8 Nordeste 0 1007.6 -0.6 94
2019-08-15 06:00:00 15.8 5 Nordeste 8 Nordeste 0 1007.6 -0.9 94
2019-08-15 05:00:00 16.1 3 Noroeste 12 Este 0 1007.9 -1 94
2019-08-15 04:00:00 16.9 2 Nordeste 7 Nordeste 0 1008.2 -0.7 94
2019-08-15 03:00:00 17.9 2 Norte 7 Norte 0 1008.5 0.1 95
2019-08-15 02:00:00 18.1 4 Norte 8 Sudoeste 0 1008.9 0.5 97
2019-08-15 01:00:00 18.3 5 Sudoeste 7 Sudoeste 0 1008.9 0.9 96
2019-08-15 00:00:00 18.4 3 Sudoeste 5 Nordeste 0 1008.4 0.8 96
2019-08-14 23:00:00 18.5 2 Sur 8 Sudoeste 0 1008.4 0.9 95
2019-08-14 22:00:00 18.9 7 Sudoeste 15 Sudoeste 0 1008 0.4 93
2019-08-14 21:00:00 21.2 9 Sudoeste 14 Sudoeste 0 1007.6 -0.3 84
2019-08-14 20:00:00 22.9 8 Sudoeste 16 Sudoeste 0 1007.5 -0.6 77
2019-08-14 19:00:00 23.3 8 Sudoeste 15 Sudoeste 0 1007.6 -0.6 76
2019-08-14 18:00:00 22.6 7 Sudoeste 17 Sudoeste 0 1007.9 -0.7 78
2019-08-14 17:00:00 22.5 6 Sudoeste 15 Sudoeste 0 1008.1 -0.6 75
2019-08-14 16:00:00 23.1 8 Sudoeste 14 Sudoeste 0 1008.2 -0.5 72
2019-08-14 15:00:00 22.1 5 Sudoeste 14 Oeste 0 1008.6 0 75
2019-08-14 14:00:00 21.4 9 Oeste 14 Sudoeste 0 1008.7 0.5 77
2019-08-14 13:00:00 20.9 5 Sudoeste 10 Sudoeste 0 1008.7 0.7 71
2019-08-14 12:00:00 20 2 Oeste 6 Norte 0 1008.6 0.7 70
2019-08-14 11:00:00 18.7 2 Sur 10 Nordeste 0 1008.2 0.6 70
2019-08-14 10:00:00 16.4 6 Este 13 Nordeste 0 1008 0.9 78
2019-08-14 09:00:00 15.3 10 Nordeste 16 Este 0 1007.9 0.3 82
2019-08-14 08:00:00 14 9 Este 13 Este 0 1007.6 -0.1 89
2019-08-14 07:00:00 14.7 8 Este 17 Este 0 1007.1 -1 88
2019-08-14 06:00:00 14.2 6 Este 10 Nordeste 0 1007.6 -0.1 92
2019-08-14 05:00:00 14.9 6 Este 10 Este 0 1007.7 -0.1 90
2019-08-14 04:00:00 15 4 Nordeste 8 Nordeste 0 1008.1 0.3 90
2019-08-14 03:00:00 15.3 4 Nordeste 6 Nordeste 0 1007.7 -0.2 89
2019-08-14 02:00:00 15.6 3 Este 5 Norte 0 1007.8 -0.2 90
2019-08-14 01:00:00 16.1 3 Sudeste 6 Este 0 1007.8 0.1 87
2019-08-14 00:00:00 16.6 6 Este 8 Este 0 1007.9 0.5 85
2019-08-13 23:00:00 17.5 2 Este 9 Sudoeste 0 1008 0.8 82
2019-08-13 22:00:00 18.7 6 Sudoeste 17 Sudoeste 0 1007.7 0.5 76
2019-08-13 21:00:00 21.2 5 Sur 19 Sudoeste 0 1007.4 0.2 66
2019-08-13 20:00:00 22.2 10 Sudoeste 28 Sudoeste 0 1007.2 0 64
2019-08-13 19:00:00 23.4 12 Sudoeste 26 Sudoeste 0 1007.2 -0.5 59
2019-08-13 18:00:00 23.7 14 Sudoeste 28 Sudoeste 0 1007.2 -0.8 55
2019-08-13 17:00:00 23.3 13 Sudoeste 23 Sudoeste 0 1007.2 -1 58
2019-08-13 16:00:00 23.1 13 Sudoeste 22 Sudoeste 0 1007.7 -0.6 55
2019-08-13 15:00:00 23.1 11 Sudoeste 18 Sudoeste 0 1008 -0.7 59
2019-08-13 14:00:00 22.1 6 Sudoeste 15 Oeste 0 1008.2 -0.4 59
2019-08-13 13:00:00 21.2 6 Oeste 14 Oeste 0 1008.3 -0.4 59
2019-08-13 12:00:00 19 4 Oeste 8 Sudoeste 0 1008.7 0.3 67
2019-08-13 11:00:00 16.3 3 Sudoeste 6 Sudoeste 0 1008.6 0.5 74
2019-08-13 10:00:00 13.8 2 Sudoeste 4 Sudoeste 0 1008.7 0.6 77
2019-08-13 09:00:00 11.4 0 Calma 5 Norte 0 1008.4 0.5 88
2019-08-13 08:00:00 10.8 2 Sudeste 6 Norte 0 1008.1 0 87
2019-08-13 07:00:00 11 3 Sudeste 7 Sudeste 0 1008.1 -0.2 88
2019-08-13 06:00:00 11.4 2 Sudeste 4 Sudeste 0 1007.9 -1 86
2019-08-13 05:00:00 12.2 3 Sudeste 6 Sur 0 1008.1 -1.5 84
2019-08-13 04:00:00 14.1 4 Nordeste 14 Norte 0 1008.3 -1.5 70
2019-08-13 03:00:00 14.2 6 Nordeste 12 Nordeste 0 1008.9 -1.1 75
2019-08-13 02:00:00 14.8 5 Nordeste 13 Nordeste 0 1009.6 -0.8 79
2019-08-13 01:00:00 15.3 8 Nordeste 14 Nordeste 0 1009.8 0.3 77
2019-08-13 00:00:00 15.6 3 Norte 18 Noroeste 0 1010 0.9 74
2019-08-12 23:00:00 16.5 6 Noroeste 14 Noroeste 0 1010.4 1.8 70
2019-08-12 22:00:00 18 5 Norte 15 Norte 0 1009.5 1.1 60
2019-08-12 21:00:00 20 10 Noroeste 23 Noroeste 0 1009.1 0.6 55
2019-08-12 20:00:00 21.6 13 Noroeste 29 Noroeste 0 1008.6 0 49
2019-08-12 19:00:00 22.4 13 Noroeste 30 Noroeste 0 1008.4 -0.8 49
2019-08-12 18:00:00 22.5 13 Noroeste 26 Noroeste 0 1008.5 -1.4 52
2019-08-12 17:00:00 21.4 13 Noroeste 28 Noroeste 0 1008.6 -1.8 54
2019-08-12 16:00:00 22 11 Norte 22 Norte 0 1009.2 -1.3 51
2019-08-12 15:00:00 22.2 13 Norte 25 Norte 0 1009.9 -0.5 45
2019-08-12 14:00:00 20.6 12 Noroeste 23 Noroeste 0 1010.4 -0.1 52
2019-08-12 13:00:00 21.3 8 Norte 20 Noroeste 0 1010.5 -0.1 53
2019-08-12 12:00:00 19.9 12 Nordeste 22 Nordeste 0 1010.4 0.1 59
2019-08-12 11:00:00 18 6 Norte 15 Nordeste 0 1010.5 0.8 70
2019-08-12 10:00:00 15.1 6 Este 11 Este 0 1010.6 1.2 80
2019-08-12 09:00:00 12.5 8 Nordeste 16 Nordeste 0 1010.3 1.1 87
2019-08-12 08:00:00 11.6 9 Nordeste 18 Este 0 1009.7 0.5 91
2019-08-12 07:00:00 11.6 10 Este 17 Este 0 1009.4 0.1 92
2019-08-12 06:00:00 11.9 12 Este 18 Este 0 1009.2 -0.4 91
2019-08-12 05:00:00 12.4 9 Nordeste 17 Este 0 1009.2 -0.5 91
2019-08-12 04:00:00 13 10 Nordeste 15 Este 0 1009.3 -0.3 91
2019-08-12 03:00:00 13.6 8 Nordeste 17 Nordeste 0 1009.6 0.1 90
2019-08-12 02:00:00 14.3 7 Este 11 Este 0 1009.7 0.4 88
2019-08-12 01:00:00 15 5 Nordeste 9 Este 0 1009.6 1 86
2019-08-12 00:00:00 15.7 5 Nordeste 9 Norte 0 1009.5 1.4 82
2019-08-11 23:00:00 16.4 3 Oeste 9 Oeste 0 1009.3 1.6 80
2019-08-11 22:00:00 17.3 4 Oeste 14 Sudoeste 0 1008.6 0.7 75
2019-08-11 21:00:00 18.7 7 Sudoeste 20 Noroeste 0 1008.1 0.6 69
2019-08-11 20:00:00 20.3 10 Oeste 26 Sudoeste 0 1007.7 0.2 60
2019-08-11 19:00:00 20.4 15 Oeste 28 Oeste 0 1007.9 0.5 58
2019-08-11 18:00:00 21.2 15 Sudoeste 26 Sudoeste 0 1007.5 0.1 53
2019-08-11 17:00:00 21.4 12 Sudoeste 31 Sudoeste 0 1007.5 0 55
2019-08-11 16:00:00 21.3 15 Sudoeste 31 Sudoeste 0 1007.4 -0.2 65
2019-08-11 15:00:00 21.2 18 Sudoeste 30 Sudoeste 0 1007.4 0.1 64
2019-08-11 14:00:00 21.1 13 Sudoeste 29 Sudoeste 0 1007.5 0.4 67
2019-08-11 13:00:00 19.1 13 Sudoeste 26 Sudoeste 0 1007.6 0.7 73
2019-08-11 12:00:00 19.1 10 Sudoeste 17 Sudoeste 0 1007.3 0.6 70
2019-08-11 11:00:00 17.8 5 Sur 9 Sudoeste 0 1007.1 0.8 80
2019-08-11 10:00:00 16 5 Nordeste 13 Este 0 1006.9 0.9 82
2019-08-11 09:00:00 13.3 4 Nordeste 10 Nordeste 0 1006.7 0.7 91
2019-08-11 08:00:00 12.3 4 Este 13 Este 0 1006.3 0.2 93
2019-08-11 07:00:00 12.5 4 Este 14 Este 0 1006 -0.4 93
2019-08-11 06:00:00 12.9 10 Este 13 Este 0 1006 -0.9 94
2019-08-11 05:00:00 13.5 5 Nordeste 13 Nordeste 0 1006.1 -1.1 93
2019-08-11 04:00:00 14.3 6 Nordeste 13 Nordeste 0 1006.4 -0.7 91
2019-08-11 03:00:00 14.8 8 Este 12 Este 0 1006.9 -0.2 91
2019-08-11 02:00:00 15.4 7 Nordeste 11 Nordeste 0 1007.2 -0.3 89
2019-08-11 01:00:00 16 6 Nordeste 8 Nordeste 0 1007.1 -0.1 86
2019-08-11 00:00:00 16.6 4 Nordeste 7 Sur 0 1007.1 -0.2 84
2019-08-10 23:00:00 16.8 3 Sudoeste 11 Oeste 0 1007.5 0.5 80
2019-08-10 22:00:00 17.7 5 Oeste 14 Sudoeste 0 1007.2 0 80
2019-08-10 21:00:00 18.4 10 Sudoeste 18 Oeste 0 1007.3 0.3 76
2019-08-10 20:00:00 19.2 9 Sudoeste 22 Sudoeste 0 1007 -0.2 68
2019-08-10 19:00:00 20.7 13 Sudoeste 26 Sudoeste 0 1007.2 -0.1 64
2019-08-10 18:00:00 21.1 12 Sudoeste 26 Sudoeste 0 1007 -0.6 65
2019-08-10 17:00:00 21.3 15 Sudoeste 26 Sudoeste 0 1007.2 -0.5 67
2019-08-10 16:00:00 22.1 13 Sudoeste 26 Sudoeste 0 1007.3 -0.3 62
2019-08-10 15:00:00 22.1 13 Sudoeste 25 Sudoeste 0 1007.6 -0.1 56
2019-08-10 14:00:00 21.2 13 Sudoeste 26 Sudoeste 0 1007.7 0 67
2019-08-10 13:00:00 21.4 9 Sudoeste 19 Sudoeste 0 1007.6 0.1 67
2019-08-10 12:00:00 20.3 10 Sudoeste 18 Sudoeste 0 1007.7 0.5 71
2019-08-10 11:00:00 18.1 6 Sudoeste 12 Sudoeste 0 1007.7 1.1 88
2019-08-10 10:00:00 17.9 3 Oeste 10 Sur 0 1007.5 1.1 88
2019-08-10 09:00:00 16.7 4 Sudeste 8 Oeste 0 1007.2 1.3 95
2019-08-10 08:00:00 16.8 2 Sudeste 4 Sudeste 0 1006.6 0.8 93
2019-08-10 07:00:00 16.7 3 Sudeste 7 Sudeste 0 1006.4 0.6 94
2019-08-10 06:00:00 16.8 2 Norte 10 Sur 0 1005.9 0.3 92
2019-08-10 05:00:00 16.7 5 Sudeste 10 Sur 0 1005.8 0 92
2019-08-10 04:00:00 17.2 6 Sur 13 Sur 0 1005.8 0.3 89
2019-08-10 03:00:00 17.3 5 Sur 14 Sudeste 0 1005.6 0.3 88
2019-08-10 02:00:00 17.6 8 Sur 17 Sur 0 1005.8 0.8 88
2019-08-10 01:00:00 17.5 9 Sur 20 Sur 0 1005.5 1.1 86
2019-08-10 00:00:00 17.5 9 Sur 17 Sur 0 1005.3 1.3 88
2019-08-09 23:00:00 17.6 9 Sur 17 Sur 0 1005 1.3 88
2019-08-09 22:00:00 18.2 8 Sur 29 Sudoeste 0 1004.4 1.2 85
2019-08-09 21:00:00 19.3 9 Sur 25 Sudoeste 0 1004 1.2 81
2019-08-09 20:00:00 19.9 10 Sudoeste 30 Sudoeste 0 1003.7 0.8 78
2019-08-09 19:00:00 20.6 13 Sudoeste 37 Sudoeste 0 1003.2 0.8 75
2019-08-09 18:00:00 20.8 17 Sudoeste 37 Sudoeste 0 1002.8 0.8 71
2019-08-09 17:00:00 20.9 16 Sudoeste 42 Sudoeste 0 1002.9 1.5 77
2019-08-09 16:00:00 20.7 19 Sudoeste 42 Sudoeste 0 1002.4 1.8 76
2019-08-09 15:00:00 20.9 22 Sudoeste 50 Sudoeste 0 1002 2 79
2019-08-09 14:00:00 21.2 23 Sudoeste 46 Sudoeste 0 1001.4 2.1 77
2019-08-09 13:00:00 20.5 22 Sudoeste 43 Sudoeste 0 1000.6 2 80
2019-08-09 12:00:00 20.5 14 Sur 37 Sur 0 1000 1.8 80
2019-08-09 11:00:00 19.4 15 Sur 40 Sudoeste 0.6 999.3 1.4 86
2019-08-09 10:00:00 19.6 14 Sur 36 Sur 0 998.6 1.2 85
2019-08-09 09:00:00 19.3 17 Sur 40 Sur 0 998.2 1 87
2019-08-09 08:00:00 18.9 17 Sur 36 Sur 0 997.9 0.6 86
2019-08-09 07:00:00 18.7 15 Sur 36 Sur 0 997.4 0.4 87
2019-08-09 06:00:00 18.6 16 Sur 35 Sur 0 997.2 0.2 88
2019-08-09 05:00:00 18.2 13 Sur 30 Sur 0 997.3 0.4 89
2019-08-09 04:00:00 17.9 12 Sur 27 Sur 0 997 0.3 92
2019-08-09 03:00:00 17.6 9 Sur 32 Sur 0.2 997 0.7 92
2019-08-09 02:00:00 17.9 11 Sur 22 Sur 0 996.9 1.4 96
2019-08-09 01:00:00 17.6 4 Nordeste 37 Sudoeste 0.2 996.7 2.2 98
2019-08-09 00:00:00 17.9 28 Sudoeste 62 Sudoeste 3.8 996.3 2 98
2019-08-08 23:00:00 19 28 Sudoeste 50 Sudoeste 4.2 995.5 1 96
2019-08-08 22:00:00 20.9 20 Sur 53 Sur 3.8 994.5 -0.7 97
2019-08-08 21:00:00 21.2 22 Sur 51 Sur 0.2 994.3 -1.1 95
2019-08-08 20:00:00 21.3 24 Sur 55 Sur 0.2 994.5 -0.5 95
2019-08-08 19:00:00 20.9 22 Sur 42 Sur 3.8 995.2 -0.3 96
2019-08-08 18:00:00 20.8 19 Sur 44 Sur 7.2 995.4 -0.4 96
2019-08-08 17:00:00 22.6 18 Sur 48 Sur 0 995 -1.2 86
2019-08-08 16:00:00 22.6 17 Sur 39 Sur 0 995.5 -0.8 86
2019-08-08 15:00:00 21.9 18 Sur 42 Sur 0.2 995.8 -0.7 91
2019-08-08 14:00:00 21.5 13 Sur 30 Sur 0.4 996.2 0.2 97
2019-08-08 13:00:00 21.3 13 Sur 25 Sur 2.6 996.3 -0.2 97
2019-08-08 12:00:00 21.2 11 Sur 29 Sur 1.6 996.5 -0.1 96
2019-08-08 11:00:00 21.6 12 Sur 22 Sudeste 0 996 -0.5 92
2019-08-08 10:00:00 21 10 Sur 21 Sur 0 996.5 0.2 95
2019-08-08 09:00:00 20.3 7 Sur 23 Sur 0 996.6 0.5 96
2019-08-08 08:00:00 20.1 13 Sur 25 Sur 0 996.5 -0.2 96
2019-08-08 07:00:00 19.9 10 Sur 19 Sur 0 996.3 -0.5 97
2019-08-08 06:00:00 19.7 7 Sur 24 Sur 0 996.1 -1 97
2019-08-08 05:00:00 19.5 11 Sur 27 Sur 0.2 996.7 -0.7 98
2019-08-08 04:00:00 19.2 9 Sur 29 Sur 0.2 996.8 -0.8 97
2019-08-08 03:00:00 19.1 9 Sur 23 Sur 0.4 997.1 -0.8 97
2019-08-08 02:00:00 18.9 6 Sur 15 Sur 0.4 997.4 -0.8 96
2019-08-08 01:00:00 18.4 3 Este 10 Nordeste 0.4 997.6 -0.4 96
2019-08-08 00:00:00 18.5 4 Sudeste 20 Sur 0 997.9 0.3 94
2019-08-07 23:00:00 18.2 10 Sur 25 Sur 0.6 998.2 0.4 96
2019-08-07 22:00:00 18.1 3 Oeste 26 Sudeste 0.6 998 0.1 96
2019-08-07 21:00:00 18.5 13 Sur 29 Sur 2.2 997.6 -0.7 93
2019-08-07 20:00:00 20 5 Sudoeste 27 Sur 0.2 997.8 -0.7 94
2019-08-07 19:00:00 20.4 11 Sur 32 Sur 0 997.9 -0.8 91
2019-08-07 18:00:00 20 13 Sur 26 Sur 0 998.3 -0.4 94
2019-08-07 17:00:00 19.7 9 Sur 22 Sur 1 998.5 -0.6 97
2019-08-07 16:00:00 19.6 8 Sur 25 Sur 1 998.7 -0.1 96
2019-08-07 15:00:00 19.8 15 Sudeste 31 Sur 1 998.7 0 94
2019-08-07 14:00:00 19.7 7 Sur 23 Sur 3.6 999.1 0.4 96
2019-08-07 13:00:00 20 10 Sur 24 Sur 0.2 998.8 0 91
2019-08-07 12:00:00 19.6 2 Sudoeste 14 Este 1 998.7 0.1 95
2019-08-07 11:00:00 19.4 2 Sur 8 Sur 2 998.7 0.2 96
2019-08-07 10:00:00 19.1 2 Sudoeste 7 Sudeste 1.2 998.8 0.5 96
2019-08-07 09:00:00 18.8 6 Sur 13 Sur 0.2 998.6 -0.1 93
2019-08-07 08:00:00 18 3 Este 7 Norte 0 998.5 -0.1 96
2019-08-07 07:00:00 17.8 3 Norte 6 Nordeste 0 998.3 -0.5 95
2019-08-07 06:00:00 17.7 2 Noroeste 5 Noroeste 0 998.7 -0.3 96
2019-08-07 05:00:00 18 2 Sudeste 6 Este 0 998.6 -1.2 94
2019-08-07 04:00:00 18 3 Este 9 Este 0 998.8 -1.1 95
2019-08-07 03:00:00 18.1 5 Este 9 Sudeste 0 999 -1.4 94
2019-08-07 02:00:00 18.1 3 Sur 6 Sudeste 0 999.8 -0.9 94
2019-08-07 01:00:00 18.8 4 Sudeste 7 Sudeste 0 999.9 -0.1 94
2019-08-07 00:00:00 19.1 4 Este 7 Este 0 1000.4 0.7 93
2019-08-06 23:00:00 19.1 4 Sudoeste 14 Oeste 0 1000.7 1.2 93
2019-08-06 22:00:00 19.1 2 Sudoeste 8 Sudoeste 0 1000 0.5 92
2019-08-06 21:00:00 19.5 8 Sudoeste 18 Sudoeste 0 999.7 -0.6 90
2019-08-06 20:00:00 20.5 2 Noroeste 8 Nordeste 0 999.5 -2.4 90
2019-08-06 19:00:00 20.3 2 Sudoeste 12 Sudoeste 0 999.5 -2.3 90
2019-08-06 18:00:00 20.4 5 Este 12 Este 0 1000.3 -1.8 91
2019-08-06 17:00:00 19.8 5 Sudoeste 16 Sudoeste 0.2 1001.9 -0.1 93
2019-08-06 16:00:00 19.8 8 Sudoeste 24 Sudoeste 0 1001.8 0.2 89
2019-08-06 15:00:00 20.4 13 Sudoeste 24 Sur 0 1002.1 0.5 85
2019-08-06 14:00:00 21.1 10 Sudoeste 20 Sudoeste 0 1002 0.6 81
2019-08-06 13:00:00 22.3 7 Sur 17 Sur 0 1001.6 0 76
2019-08-06 12:00:00 21.6 8 Sur 15 Sudeste 0 1001.6 0.2 79
2019-08-06 11:00:00 20.2 4 Sur 11 Sur 0 1001.4 0.4 84
2019-08-06 10:00:00 19.4 3 Sur 6 Sur 0 1001.6 0.7 89
2019-08-06 09:00:00 19 3 Oeste 5 Este 0 1001.4 0.6 91
2019-08-06 08:00:00 18.2 3 Este 5 Sudeste 0 1001 -0.1 93
2019-08-06 07:00:00 17.9 3 Nordeste 6 Norte 0 1000.9 -1 92
2019-08-06 06:00:00 18.5 4 Este 9 Este 0 1000.8 -1.4 90
2019-08-06 05:00:00 19 3 Este 6 Este 0 1001.1 -1.6 89
2019-08-06 04:00:00 19 3 Sur 7 Sur 0 1001.9 -0.9 89
2019-08-06 03:00:00 19.1 4 Sudeste 9 Sudoeste 0 1002.2 -0.5 89
2019-08-06 02:00:00 19.2 4 Sudoeste 12 Sudoeste 0 1002.7 -0.3 89
2019-08-06 01:00:00 19.6 6 Sudoeste 13 Sudoeste 0 1002.8 0.4 86
2019-08-06 00:00:00 19.8 5 Sur 12 Sudoeste 0 1002.7 0.4 84
2019-08-05 23:00:00 19.9 7 Sudoeste 11 Sudoeste 0 1003 0.8 86
2019-08-05 22:00:00 20 6 Sur 13 Sur 0 1002.4 0 85
2019-08-05 21:00:00 21.1 5 Sur 19 Sudoeste 0 1002.3 0.1 81
2019-08-05 20:00:00 22.4 10 Sudoeste 27 Sudoeste 0 1002.2 -0.1 75
2019-08-05 19:00:00 22.7 19 Sudoeste 29 Sudoeste 0 1002.4 -0.1 74
2019-08-05 18:00:00 24.5 14 Sudoeste 29 Sudoeste 0 1002.2 -0.6 66
2019-08-05 17:00:00 25 14 Sudoeste 30 Sudoeste 0 1002.3 -0.7 62
2019-08-05 16:00:00 24.9 11 Sudoeste 25 Sudoeste 0 1002.5 -0.8 57
2019-08-05 15:00:00 24.7 12 Sudoeste 25 Sudoeste 0 1002.8 -0.8 54
2019-08-05 14:00:00 23.9 12 Sudoeste 23 Sudoeste 0 1003 -0.6 57
2019-08-05 13:00:00 23.9 7 Sudoeste 15 Sudoeste 0 1003.3 -0.5 56
2019-08-05 12:00:00 22.3 6 Oeste 13 Sudoeste 0 1003.6 -0.2 63
2019-08-05 11:00:00 20 3 Sudoeste 6 Sur 0 1003.6 -0.3 71
2019-08-05 10:00:00 17.3 3 Oeste 13 Nordeste 0 1003.8 0 79
2019-08-05 09:00:00 14.8 9 Nordeste 13 Nordeste 0 1003.8 0 87
2019-08-05 08:00:00 13.4 4 Nordeste 11 Este 0 1003.9 -0.2 91
2019-08-05 07:00:00 13.8 10 Este 16 Nordeste 0 1003.8 -0.4 91
2019-08-05 06:00:00 13.9 10 Este 15 Este 0 1003.8 -0.6 91
2019-08-05 05:00:00 14.2 3 Norte 14 Este 0 1004.1 -0.5 89
2019-08-05 04:00:00 15 10 Nordeste 15 Nordeste 0 1004.2 -0.3 87
2019-08-05 03:00:00 16.1 6 Nordeste 11 Este 0 1004.4 -0.4 85
2019-08-05 02:00:00 16.4 4 Nordeste 11 Este 0 1004.6 -0.1 84
2019-08-05 01:00:00 16.8 8 Este 11 Este 0 1004.5 0.2 83
2019-08-05 00:00:00 17 4 Sudeste 9 Sudeste 0 1004.8 1 86
2019-08-04 23:00:00 17.4 4 Sur 14 Sur 0 1004.7 1.1 82
2019-08-04 22:00:00 18.4 5 Sur 19 Sudoeste 0 1004.3 0.9 75
2019-08-04 21:00:00 20.4 9 Sur 25 Sudoeste 0 1003.8 0.4 71
2019-08-04 20:00:00 22.4 9 Sur 22 Sudoeste 0 1003.6 0.3 65
2019-08-04 19:00:00 23.4 10 Sur 27 Sudoeste 0 1003.4 0.2 61
2019-08-04 18:00:00 24.1 16 Sudoeste 28 Sudoeste 0 1003.4 0.3 58
2019-08-04 17:00:00 24.4 14 Sudoeste 33 Sudoeste 0 1003.3 0 59
2019-08-04 16:00:00 24.5 14 Sudoeste 31 Sudoeste 0 1003.2 -0.3 59
2019-08-04 15:00:00 24.4 15 Sudoeste 27 Sudoeste 0 1003.1 -0.4 62
2019-08-04 14:00:00 23.9 14 Sudoeste 24 Sudoeste 0 1003.3 0 65
2019-08-04 13:00:00 23.7 11 Sudoeste 17 Sudoeste 0 1003.5 0.3 71
2019-08-04 12:00:00 22.3 7 Sudoeste 13 Sudoeste 0 1003.5 0.4 74
2019-08-04 11:00:00 21.1 5 Sudoeste 10 Sudoeste 0 1003.3 0.4 80
2019-08-04 10:00:00 19.6 2 Sudoeste 4 Noroeste 0 1003.2 0.7 87
2019-08-04 09:00:00 17.8 0 Calma 4 Nordeste 0 1003.1 0.5 96
2019-08-04 08:00:00 17.4 2 Sudeste 3 Sudeste 0 1002.9 0.2 96
2019-08-04 07:00:00 17.2 2 Sur 5 Sudeste 0 1002.5 -0.1 96
2019-08-04 06:00:00 17.5 0 Calma 5 Sur 0 1002.6 -0.2 94
2019-08-04 05:00:00 18.1 3 Sur 6 Sudoeste 0 1002.7 -0.2 94
2019-08-04 04:00:00 18.7 2 Sudoeste 4 Sudoeste 0 1002.6 -0.3 91
2019-08-04 03:00:00 19 0 Calma 5 Oeste 0 1002.8 0 90
2019-08-04 02:00:00 19.2 3 Oeste 5 Oeste 0 1002.9 0 89
2019-08-04 01:00:00 19.5 2 Oeste 5 Oeste 0 1002.9 0.3 89
2019-08-04 00:00:00 19.4 3 Oeste 6 Sur 0 1002.8 0.6 89
2019-08-03 23:00:00 19.7 3 Sudeste 12 Sur 0 1002.9 0.9 87
2019-08-03 22:00:00 20.3 6 Sur 17 Sudoeste 0 1002.6 0.4 84
2019-08-03 21:00:00 21.8 9 Sudoeste 22 Sudoeste 0 1002.2 0 77
2019-08-03 20:00:00 23.5 9 Sudoeste 27 Sudoeste 0 1002 -0.4 70
2019-08-03 19:00:00 24.1 16 Sudoeste 27 Oeste 0 1002.2 -0.3 65
2019-08-03 18:00:00 25 11 Sudoeste 26 Sudoeste 0 1002.2 -0.5 60
2019-08-03 17:00:00 24.8 15 Sudoeste 26 Sudoeste 0 1002.4 -0.3 59
2019-08-03 16:00:00 25.4 12 Sudoeste 23 Sudoeste 0 1002.5 -0.3 57
2019-08-03 15:00:00 24.7 12 Sudoeste 24 Sudoeste 0 1002.7 0.1 58
2019-08-03 14:00:00 23.9 13 Sudoeste 23 Sudoeste 0 1002.7 0.2 63
2019-08-03 13:00:00 23.7 10 Sudoeste 21 Sudoeste 0 1002.8 0.3 65
2019-08-03 12:00:00 22.5 6 Oeste 12 Sudoeste 0 1002.6 0 60
2019-08-03 11:00:00 20 3 Sur 9 Nordeste 0 1002.5 0.1 69
2019-08-03 10:00:00 17.8 5 Nordeste 13 Este 0 1002.5 0.3 69
2019-08-03 09:00:00 14.8 6 Nordeste 17 Nordeste 0 1002.6 0.5 83
2019-08-03 08:00:00 13.8 11 Nordeste 18 Nordeste 0 1002.4 0.1 83
2019-08-03 07:00:00 13.9 12 Nordeste 18 Nordeste 0 1002.2 -0.1 87
2019-08-03 06:00:00 14.7 10 Nordeste 14 Nordeste 0 1002.1 -0.4 90
2019-08-03 05:00:00 15.5 7 Nordeste 13 Este 0 1002.3 -0.2 92
2019-08-03 04:00:00 15.4 4 Nordeste 8 Nordeste 0 1002.3 -0.6 93
2019-08-03 03:00:00 15.9 2 Este 5 Este 0 1002.5 -0.8 94
2019-08-03 02:00:00 16.6 3 Este 4 Este 0 1002.5 -1.1 94
2019-08-03 01:00:00 16.7 0 Calma 6 Este 0 1002.9 -0.3 92
2019-08-03 00:00:00 17.6 2 Nordeste 6 Nordeste 0 1003.3 0.3 90
2019-08-02 23:00:00 18.1 3 Sudeste 7 Sudoeste 0 1003.6 0.8 90
2019-08-02 22:00:00 18.9 5 Sudoeste 13 Sudoeste 0 1003.2 0.5 86
2019-08-02 21:00:00 21.2 8 Sudoeste 19 Sudoeste 0 1003 0.2 76
2019-08-02 20:00:00 23.4 9 Sudoeste 21 Sudoeste 0 1002.8 -0.5 63
2019-08-02 19:00:00 23.8 13 Sudoeste 22 Sudoeste 0 1002.7 -0.9 63
2019-08-02 18:00:00 24.1 11 Sudoeste 26 Oeste 0 1002.8 -1 63
2019-08-02 17:00:00 24.2 12 Sudoeste 25 Sudoeste 0 1003.3 -0.5 63
2019-08-02 16:00:00 24.6 9 Sudoeste 27 Sudoeste 0 1003.6 -0.2 62
2019-08-02 15:00:00 23.5 12 Sudoeste 24 Sudoeste 0 1003.8 0.1 65
2019-08-02 14:00:00 23.3 9 Sur 21 Sudoeste 0 1003.8 0 67
2019-08-02 13:00:00 23.7 11 Sudoeste 16 Sudoeste 0 1003.8 -0.1 64
2019-08-02 12:00:00 22.2 2 Noroeste 8 Sudoeste 0 1003.7 0.2 68
2019-08-02 11:00:00 20.3 6 Oeste 10 Oeste 0 1003.8 0.7 75
2019-08-02 10:00:00 18.2 3 Norte 8 Nordeste 0 1003.9 1.1 78
2019-08-02 09:00:00 15.2 3 Norte 14 Este 0 1003.5 0.9 88
2019-08-02 08:00:00 14.2 9 Nordeste 15 Nordeste 0 1003.1 0.3 90
2019-08-02 07:00:00 14.7 7 Nordeste 14 Nordeste 0 1002.8 0.3 90
2019-08-02 06:00:00 15.2 7 Nordeste 13 Este 0 1002.6 -0.1 88
2019-08-02 05:00:00 15.7 5 Nordeste 8 Este 0 1002.8 -0.2 87
2019-08-02 04:00:00 16.6 4 Nordeste 8 Nordeste 0 1002.5 -0.4 86
2019-08-02 03:00:00 17.3 3 Norte 7 Norte 0 1002.7 -0.1 85
2019-08-02 02:00:00 17.6 2 Sudeste 5 Norte 0 1003 0.5 84
2019-08-02 01:00:00 18.7 2 Norte 10 Noroeste 0 1002.9 1.1 80
2019-08-02 00:00:00 19.6 5 Norte 14 Norte 0 1002.8 1.7 76
2019-08-01 23:00:00 20.5 5 Noroeste 22 Noroeste 0 1002.5 1.9 73
2019-08-01 22:00:00 22.1 15 Noroeste 23 Noroeste 0 1001.8 1.3 68
2019-08-01 21:00:00 25.3 14 Noroeste 20 Oeste 0 1001.1 0.6 60
2019-08-01 20:00:00 26 10 Sudoeste 26 Sudoeste 0 1000.6 0.3 57
2019-08-01 19:00:00 26.8 9 Sudoeste 28 Sudoeste 0 1000.5 -0.2 55
2019-08-01 18:00:00 26.9 14 Sudoeste 26 Sudoeste 0 1000.5 -0.2 53
2019-08-01 17:00:00 27 15 Sudoeste 24 Sudoeste 0 1000.3 -0.6 52
2019-08-01 16:00:00 27 11 Sudoeste 23 Sudoeste 0 1000.7 -0.2 52
2019-08-01 15:00:00 26.7 9 Sudoeste 20 Sudoeste 0 1000.7 -0.2 52
2019-08-01 14:00:00 25 10 Sudoeste 21 Oeste 0 1000.9 0.2 58
2019-08-01 13:00:00 23.9 12 Oeste 21 Oeste 0 1000.9 0.3 61
2019-08-01 12:00:00 23 6 Nordeste 16 Nordeste 0 1000.9 0.3 59
2019-08-01 11:00:00 20.5 3 Sudoeste 8 Sudoeste 0 1000.7 0.5 71
2019-08-01 10:00:00 17.1 3 Sudoeste 6 Sudoeste 0 1000.6 0.7 80
2019-08-01 09:00:00 14.3 0 Calma 3 Este 0 1000.6 0.5 89
2019-08-01 08:00:00 13.3 2 Noroeste 8 Nordeste 0 1000.2 -0.1 92
2019-08-01 07:00:00 13.5 5 Nordeste 9 Nordeste 0 999.9 -0.7 90
2019-08-01 06:00:00 13.7 4 Nordeste 6 Nordeste 0 1000.1 -0.6 89
2019-08-01 05:00:00 14 2 Norte 8 Noroeste 0 1000.3 -0.5 88
2019-08-01 04:00:00 14.6 3 Noroeste 7 Oeste 0 1000.6 -0.5 86
2019-08-01 03:00:00 15.4 0 Calma 10 Norte 0 1000.7 -0.6 83
2019-08-01 02:00:00 16.4 5 Norte 12 Noroeste 0 1000.8 -0.7 80
2019-08-01 01:00:00 18.1 5 Noroeste 21 Norte 0 1001.1 -0.1 71
2019-08-01 00:00:00 18.8 5 Norte 15 Norte 0 1001.3 0.3 69
2019-07-31 23:00:00 19.8 3 Noroeste 19 Nordeste 0 1001.5 0.7 64
2019-07-31 22:00:00 21 8 Noroeste 18 Noroeste 0 1001.2 0.3 61
2019-07-31 21:00:00 22 11 Noroeste 22 Noroeste 0 1001 -0.1 58
2019-07-31 20:00:00 24.3 9 Noroeste 24 Noroeste 0 1000.8 -0.8 52
2019-07-31 19:00:00 25.6 11 Noroeste 23 Norte 0 1000.9 -1.4 48
2019-07-31 18:00:00 26.6 13 Noroeste 27 Norte 0 1001.1 -1.4 41
2019-07-31 17:00:00 25.9 12 Noroeste 25 Noroeste 0 1001.6 -1.4 47
2019-07-31 16:00:00 25.8 16 Noroeste 28 Noroeste 0 1002.3 -1.3 48
2019-07-31 15:00:00 24.8 17 Noroeste 26 Noroeste 0 1002.5 -1.6 49
2019-07-31 14:00:00 23.6 9 Noroeste 26 Noroeste 0 1003 -1.2 52
2019-07-31 13:00:00 21.6 14 Noroeste 23 Noroeste 0 1003.6 -0.7 58
2019-07-31 12:00:00 19.1 10 Noroeste 20 Noroeste 0 1004.1 -0.4 62
2019-07-31 11:00:00 18.6 13 Noroeste 19 Noroeste 0 1004.2 -0.6 62
2019-07-31 10:00:00 16.2 5 Norte 16 Noroeste 0 1004.3 -0.4 71
2019-07-31 09:00:00 12.4 3 Sur 12 Noroeste 0 1004.5 -0.3 85
2019-07-31 08:00:00 11.4 4 Norte 9 Norte 0 1004.8 -0.3 85
2019-07-31 07:00:00 11.6 0 Calma 8 Nordeste 0 1004.7 -1 85
2019-07-31 06:00:00 11.8 5 Este 14 Norte 0 1004.8 -1.5 85
2019-07-31 05:00:00 12.2 5 Nordeste 11 Nordeste 0 1005.1 -1.6 87
2019-07-31 04:00:00 12.4 6 Este 10 Nordeste 0 1005.7 -1.3 86
2019-07-31 03:00:00 13.5 4 Nordeste 10 Norte 0 1006.3 -1.1 81
2019-07-31 02:00:00 14.2 4 Nordeste 10 Norte 0 1006.7 -0.4 78
2019-07-31 01:00:00 15.2 6 Norte 19 Norte 0 1007 0.6 73
2019-07-31 00:00:00 15.8 4 Norte 16 Norte 0 1007.4 1.2 70
2019-07-30 23:00:00 17 5 Norte 21 Norte 0 1007.1 1.2 66
2019-07-30 22:00:00 18.6 13 Noroeste 31 Noroeste 0 1006.4 0.4 60
2019-07-30 21:00:00 20.4 17 Noroeste 29 Noroeste 0 1006.2 -0.1 53
2019-07-30 20:00:00 22.3 15 Oeste 31 Noroeste 0 1005.9 -1 50
2019-07-30 19:00:00 23.2 16 Oeste 29 Noroeste 0 1006 -1.3 47
2019-07-30 18:00:00 23.5 17 Oeste 31 Oeste 0 1006.3 -1.5 45
2019-07-30 17:00:00 22.7 17 Oeste 30 Oeste 0 1006.9 -1.2 50
2019-07-30 16:00:00 22.7 17 Noroeste 26 Oeste 0 1007.3 -1.2 50
2019-07-30 15:00:00 21.3 9 Noroeste 24 Noroeste 0 1007.8 -0.9 53
2019-07-30 14:00:00 21.9 9 Norte 19 Noroeste 0 1008.1 -0.5 49
2019-07-30 13:00:00 20.2 9 Noroeste 21 Oeste 0 1008.5 -0.1 55
2019-07-30 12:00:00 19.6 6 Noroeste 15 Noroeste 0 1008.7 0.4 62
2019-07-30 11:00:00 16.9 3 Norte 10 Nordeste 0 1008.6 0.6 76
2019-07-30 10:00:00 14.7 7 Nordeste 13 Este 0 1008.6 1 85
2019-07-30 09:00:00 12.3 7 Nordeste 11 Nordeste 0 1008.3 0.9 91
2019-07-30 08:00:00 11.3 5 Este 15 Nordeste 0 1008 0.8 93
2019-07-30 07:00:00 11.7 6 Este 12 Nordeste 0 1007.6 0.3 92
2019-07-30 06:00:00 11.9 6 Este 13 Este 0 1007.4 0.2 92
2019-07-30 05:00:00 12.6 6 Nordeste 17 Nordeste 0 1007.2 0 90
2019-07-30 04:00:00 13 11 Nordeste 17 Nordeste 0 1007.3 0.4 90
2019-07-30 03:00:00 13.6 10 Nordeste 14 Nordeste 0 1007.2 0.5 90
2019-07-30 02:00:00 14.5 6 Nordeste 9 Este 0 1007.2 1.2 89
2019-07-30 01:00:00 15.3 4 Nordeste 9 Sudeste 0 1006.9 1.5 84
2019-07-30 00:00:00 15.1 3 Sur 7 Sudeste 0 1006.7 1.7 85
2019-07-29 23:00:00 16 3 Sudoeste 13 Oeste 0 1006 1.4 81
2019-07-29 22:00:00 17.1 12 Oeste 25 Oeste 0 1005.4 1 75
2019-07-29 21:00:00 18 12 Oeste 26 Oeste 0 1005 0.8 69
2019-07-29 20:00:00 19.8 14 Oeste 27 Oeste 0 1004.6 0.7 65
2019-07-29 19:00:00 19.8 16 Oeste 28 Sudoeste 0 1004.4 0.8 64
2019-07-29 18:00:00 20.6 13 Oeste 29 Oeste 0 1004.2 0.9 60
2019-07-29 17:00:00 20.2 15 Oeste 35 Sudoeste 0 1003.9 0.9 63
2019-07-29 16:00:00 20.1 18 Oeste 31 Sudoeste 0 1003.6 1 60
2019-07-29 15:00:00 19.3 15 Sudoeste 33 Sur 0.2 1003.3 1.3 70
2019-07-29 14:00:00 17.4 11 Oeste 27 Sudoeste 1.2 1003 1.4 85
2019-07-29 13:00:00 18 14 Sudoeste 31 Sudoeste 0.2 1002.6 1.7 83
2019-07-29 12:00:00 18.7 13 Sudoeste 26 Sudoeste 0 1002 1.5 81
2019-07-29 11:00:00 18.1 9 Sudoeste 22 Oeste 0.6 1001.6 1.7 85
2019-07-29 10:00:00 17.8 10 Sudoeste 18 Sudoeste 0 1000.9 1.6 84
2019-07-29 09:00:00 16.6 6 Sudoeste 14 Sudoeste 0 1000.5 1.5 94
2019-07-29 08:00:00 16.2 3 Sur 12 Sur 0 999.9 1.2 95
2019-07-29 07:00:00 16.1 4 Sur 10 Sur 0 999.3 0.9 95
2019-07-29 06:00:00 16.4 6 Sur 19 Sudoeste 0 999 0.5 95
2019-07-29 05:00:00 16.2 5 Sudoeste 29 Sudoeste 0.6 998.7 0 97
2019-07-29 04:00:00 16.1 7 Sudoeste 15 Sudoeste 3 998.4 -0.5 97
2019-07-29 03:00:00 15.4 5 Noroeste 11 Nordeste 0.4 998.5 -0.2 96
2019-07-29 02:00:00 15.4 9 Norte 18 Sur 0.6 998.7 -0.1 94
2019-07-29 01:00:00 16.4 10 Sur 19 Sudeste 0.4 998.9 0.2 85
2019-07-29 00:00:00 17.3 5 Sur 13 Sur 0 998.7 0.2 76
2019-07-28 23:00:00 16.7 6 Sudeste 12 Sur 0 998.8 0.8 85
2019-07-28 22:00:00 17.4 6 Sudoeste 23 Sudoeste 0 998.7 1.1 83
2019-07-28 21:00:00 18.8 15 Sudoeste 28 Sudoeste 0 998.5 0.5 76
2019-07-28 20:00:00 20.3 13 Sudoeste 26 Sudoeste 0 998 -0.1 61
2019-07-28 19:00:00 21.4 11 Sudoeste 31 Sudoeste 0 997.6 -1.1 57
2019-07-28 18:00:00 21.9 17 Sudoeste 35 Sudoeste 0 998 -0.9 53
2019-07-28 17:00:00 22.1 15 Sudoeste 28 Sudoeste 0 998.1 -1.1 53
2019-07-28 16:00:00 23 15 Sudoeste 23 Sudoeste 0 998.7 -0.8 50
2019-07-28 15:00:00 22.4 11 Oeste 22 Sudoeste 0 998.9 -0.7 56
2019-07-28 14:00:00 21.9 11 Oeste 21 Oeste 0 999.2 -0.6 62
2019-07-28 13:00:00 22.6 8 Sudoeste 15 Sudoeste 0 999.5 -0.3 58
2019-07-28 12:00:00 21.1 7 Sudoeste 13 Sudoeste 0 999.6 -0.1 61
2019-07-28 11:00:00 18.5 4 Sudoeste 6 Sudoeste 0 999.8 0.1 71
2019-07-28 10:00:00 16 0 Calma 4 Sudoeste 0 999.8 0.5 78
2019-07-28 09:00:00 13.2 0 Calma 14 Nordeste 0 999.7 0.1 89
2019-07-28 08:00:00 12.6 5 Este 15 Nordeste 0 999.7 -0.5 87
2019-07-28 07:00:00 13.4 8 Nordeste 15 Este 0 999.3 -1.1 84
2019-07-28 06:00:00 13.2 5 Norte 10 Este 0 999.6 -1.3 87
2019-07-28 05:00:00 13.7 4 Nordeste 9 Nordeste 0 1000.2 -0.7 87
2019-07-28 04:00:00 14.5 3 Noroeste 11 Nordeste 0 1000.4 -0.7 87
2019-07-28 03:00:00 14.8 3 Nordeste 8 Nordeste 0 1000.9 0 88
2019-07-28 02:00:00 15.4 2 Oeste 8 Norte 0 1000.9 0.3 87
2019-07-28 01:00:00 16.4 3 Norte 12 Norte 0 1001.1 1.3 83
2019-07-28 00:00:00 17.2 5 Norte 21 Noroeste 0 1000.9 1.8 80
2019-07-27 23:00:00 18 4 Norte 20 Oeste 0 1000.6 1.8 77
2019-07-26 12:00:00 19.8 6 Sudoeste 13 Sudoeste 0 1003.8 0.3 73
2019-07-26 11:00:00 18.9 4 Oeste 9 Noroeste 0 1003.9 0.7 79
2019-07-26 10:00:00 16.9 3 Noroeste 7 Norte 0 1003.9 0.6 95
2019-07-26 09:00:00 16.2 3 Noroeste 4 Noroeste 0 1003.5 0.6 98
2019-07-26 08:00:00 15.9 3 Este 8 Nordeste 0 1003.2 0.2 98
2019-07-26 07:00:00 15.8 0 Calma 4 Norte 0 1003.3 0.1 97
2019-07-26 06:00:00 16.4 3 Este 4 Nordeste 0 1002.9 -0.3 95
2019-07-26 05:00:00 16.7 3 Este 6 Sudoeste 0 1003 -0.5 96
2019-07-26 04:00:00 17 2 Sudoeste 7 Oeste 0 1003.2 -0.3 96
2019-07-26 03:00:00 17.1 3 Sudoeste 8 Oeste 0 1003.2 -0.3 95
2019-07-26 02:00:00 17.2 2 Noroeste 6 Sudoeste 0 1003.5 0.2 95
2019-07-26 01:00:00 17.5 4 Oeste 6 Oeste 0 1003.5 0.7 93
2019-07-26 00:00:00 17.6 4 Sudoeste 9 Sudoeste 0 1003.5 1 93